sensor_id;sensor_type;location;lat;lon;timestamp;P1;durP1;ratioP1;P2;durP2;ratioP2
20567;SDS011;10442;49.932;11.592;2023-04-29T00:01:32;13.70;;;12.70;;
20567;SDS011;10442;49.932;11.592;2023-04-29T00:03:59;11.88;;;10.88;;
20567;SDS011;10442;49.932;11.592;2023-04-29T00:06:27;11.82;;;10.88;;
20567;SDS011;10442;49.932;11.592;2023-04-29T00:08:55;11.50;;;10.50;;
20567;SDS011;10442;49.932;11.592;2023-04-29T00:11:22;11.10;;;10.20;;
20567;SDS011;10442;49.932;11.592;2023-04-29T00:13:49;10.45;;;9.63;;
20567;SDS011;10442;49.932;11.592;2023-04-29T00:16:17;9.90;;;9.20;;
20567;SDS011;10442;49.932;11.592;2023-04-29T00:18:44;10.27;;;9.48;;
20567;SDS011;10442;49.932;11.592;2023-04-29T00:21:11;12.50;;;11.50;;
20567;SDS011;10442;49.932;11.592;2023-04-29T00:23:38;10.88;;;9.98;;
20567;SDS011;10442;49.932;11.592;2023-04-29T00:26:06;11.70;;;10.80;;
20567;SDS011;10442;49.932;11.592;2023-04-29T00:28:34;10.25;;;9.43;;
20567;SDS011;10442;49.932;11.592;2023-04-29T00:31:01;11.88;;;10.98;;
20567;SDS011;10442;49.932;11.592;2023-04-29T00:33:29;11.77;;;10.88;;
20567;SDS011;10442;49.932;11.592;2023-04-29T00:35:56;10.63;;;9.82;;
20567;SDS011;10442;49.932;11.592;2023-04-29T00:38:23;10.45;;;9.68;;
20567;SDS011;10442;49.932;11.592;2023-04-29T00:40:51;10.10;;;9.30;;
20567;SDS011;10442;49.932;11.592;2023-04-29T00:43:18;9.90;;;9.20;;
20567;SDS011;10442;49.932;11.592;2023-04-29T00:45:46;11.25;;;10.27;;
20567;SDS011;10442;49.932;11.592;2023-04-29T00:48:14;9.85;;;9.10;;
20567;SDS011;10442;49.932;11.592;2023-04-29T00:50:42;9.55;;;8.85;;
20567;SDS011;10442;49.932;11.592;2023-04-29T00:53:10;8.18;;;7.57;;
20567;SDS011;10442;49.932;11.592;2023-04-29T00:55:40;9.18;;;8.48;;
20567;SDS011;10442;49.932;11.592;2023-04-29T00:58:10;8.82;;;8.13;;
20567;SDS011;10442;49.932;11.592;2023-04-29T01:00:37;9.43;;;8.70;;
20567;SDS011;10442;49.932;11.592;2023-04-29T01:03:07;8.25;;;7.65;;
20567;SDS011;10442;49.932;11.592;2023-04-29T01:05:35;6.88;;;6.38;;
20567;SDS011;10442;49.932;11.592;2023-04-29T01:10:52;7.20;;;6.70;;
20567;SDS011;10442;49.932;11.592;2023-04-29T01:13:30;5.65;;;5.25;;
20567;SDS011;10442;49.932;11.592;2023-04-29T01:16:11;5.50;;;5.10;;
20567;SDS011;10442;49.932;11.592;2023-04-29T01:18:53;5.72;;;5.38;;
20567;SDS011;10442;49.932;11.592;2023-04-29T01:21:28;5.50;;;5.00;;
20567;SDS011;10442;49.932;11.592;2023-04-29T01:23:57;5.15;;;4.82;;
20567;SDS011;10442;49.932;11.592;2023-04-29T01:26:28;5.55;;;5.15;;
20567;SDS011;10442;49.932;11.592;2023-04-29T01:31:39;4.97;;;4.68;;
20567;SDS011;10442;49.932;11.592;2023-04-29T01:34:21;5.43;;;5.10;;
20567;SDS011;10442;49.932;11.592;2023-04-29T01:37:08;5.50;;;5.10;;
20567;SDS011;10442;49.932;11.592;2023-04-29T01:39:59;5.10;;;4.70;;
20567;SDS011;10442;49.932;11.592;2023-04-29T01:42:44;4.88;;;4.50;;
20567;SDS011;10442;49.932;11.592;2023-04-29T01:45:18;5.47;;;5.07;;
20567;SDS011;10442;49.932;11.592;2023-04-29T01:47:49;5.50;;;5.10;;
20567;SDS011;10442;49.932;11.592;2023-04-29T01:50:18;5.53;;;5.18;;
20567;SDS011;10442;49.932;11.592;2023-04-29T01:52:47;5.28;;;4.85;;
20567;SDS011;10442;49.932;11.592;2023-04-29T01:55:14;4.05;;;3.85;;
20567;SDS011;10442;49.932;11.592;2023-04-29T01:57:50;4.25;;;3.95;;
20567;SDS011;10442;49.932;11.592;2023-04-29T02:00:36;3.42;;;3.22;;
20567;SDS011;10442;49.932;11.592;2023-04-29T02:03:04;3.80;;;3.50;;
20567;SDS011;10442;49.932;11.592;2023-04-29T02:05:37;3.45;;;3.25;;
20567;SDS011;10442;49.932;11.592;2023-04-29T02:08:06;3.92;;;3.70;;
20567;SDS011;10442;49.932;11.592;2023-04-29T02:10:37;3.70;;;3.50;;
20567;SDS011;10442;49.932;11.592;2023-04-29T02:13:23;3.30;;;3.10;;
20567;SDS011;10442;49.932;11.592;2023-04-29T02:15:50;4.22;;;3.92;;
20567;SDS011;10442;49.932;11.592;2023-04-29T02:18:18;4.10;;;3.80;;
20567;SDS011;10442;49.932;11.592;2023-04-29T02:20:47;4.28;;;3.97;;
20567;SDS011;10442;49.932;11.592;2023-04-29T02:23:16;3.70;;;3.50;;
20567;SDS011;10442;49.932;11.592;2023-04-29T02:25:44;4.45;;;4.10;;
20567;SDS011;10442;49.932;11.592;2023-04-29T02:28:11;3.75;;;3.45;;
20567;SDS011;10442;49.932;11.592;2023-04-29T02:30:40;4.43;;;4.03;;
20567;SDS011;10442;49.932;11.592;2023-04-29T02:33:07;4.90;;;4.50;;
20567;SDS011;10442;49.932;11.592;2023-04-29T02:35:35;4.20;;;3.83;;
20567;SDS011;10442;49.932;11.592;2023-04-29T02:38:02;4.88;;;4.32;;
20567;SDS011;10442;49.932;11.592;2023-04-29T02:40:29;4.15;;;3.85;;
20567;SDS011;10442;49.932;11.592;2023-04-29T02:42:58;4.05;;;3.75;;
20567;SDS011;10442;49.932;11.592;2023-04-29T02:45:27;3.88;;;3.67;;
20567;SDS011;10442;49.932;11.592;2023-04-29T02:47:55;4.43;;;4.03;;
20567;SDS011;10442;49.932;11.592;2023-04-29T02:50:22;5.05;;;4.65;;
20567;SDS011;10442;49.932;11.592;2023-04-29T02:52:51;4.70;;;4.15;;
20567;SDS011;10442;49.932;11.592;2023-04-29T02:55:18;5.07;;;4.70;;
20567;SDS011;10442;49.932;11.592;2023-04-29T02:57:46;3.80;;;3.50;;
20567;SDS011;10442;49.932;11.592;2023-04-29T03:00:13;4.13;;;3.90;;
20567;SDS011;10442;49.932;11.592;2023-04-29T03:02:40;4.88;;;3.38;;
20567;SDS011;10442;49.932;11.592;2023-04-29T03:05:08;3.97;;;3.67;;
20567;SDS011;10442;49.932;11.592;2023-04-29T03:07:35;5.32;;;4.93;;
20567;SDS011;10442;49.932;11.592;2023-04-29T03:10:03;5.25;;;4.85;;
20567;SDS011;10442;49.932;11.592;2023-04-29T03:12:31;4.78;;;4.25;;
20567;SDS011;10442;49.932;11.592;2023-04-29T03:15:00;4.43;;;4.13;;
20567;SDS011;10442;49.932;11.592;2023-04-29T03:17:28;4.93;;;4.63;;
20567;SDS011;10442;49.932;11.592;2023-04-29T03:19:55;4.80;;;4.45;;
20567;SDS011;10442;49.932;11.592;2023-04-29T03:22:23;3.97;;;3.75;;
20567;SDS011;10442;49.932;11.592;2023-04-29T03:24:50;4.82;;;4.43;;
20567;SDS011;10442;49.932;11.592;2023-04-29T03:27:19;3.97;;;3.70;;
20567;SDS011;10442;49.932;11.592;2023-04-29T03:29:46;4.60;;;4.20;;
20567;SDS011;10442;49.932;11.592;2023-04-29T03:32:14;4.45;;;4.15;;
20567;SDS011;10442;49.932;11.592;2023-04-29T03:34:44;3.47;;;3.28;;
20567;SDS011;10442;49.932;11.592;2023-04-29T03:37:31;5.18;;;4.38;;
20567;SDS011;10442;49.932;11.592;2023-04-29T03:40:12;4.03;;;3.72;;
20567;SDS011;10442;49.932;11.592;2023-04-29T03:42:41;4.03;;;3.72;;
20567;SDS011;10442;49.932;11.592;2023-04-29T03:45:08;4.15;;;3.92;;
20567;SDS011;10442;49.932;11.592;2023-04-29T03:47:39;4.10;;;3.90;;
20567;SDS011;10442;49.932;11.592;2023-04-29T03:50:07;4.43;;;3.58;;
20567;SDS011;10442;49.932;11.592;2023-04-29T03:52:34;4.90;;;4.50;;
20567;SDS011;10442;49.932;11.592;2023-04-29T03:55:07;5.03;;;4.63;;
20567;SDS011;10442;49.932;11.592;2023-04-29T03:57:36;3.95;;;3.75;;
20567;SDS011;10442;49.932;11.592;2023-04-29T04:00:04;4.97;;;4.68;;
20567;SDS011;10442;49.932;11.592;2023-04-29T04:02:39;4.07;;;3.88;;
20567;SDS011;10442;49.932;11.592;2023-04-29T04:05:09;4.75;;;4.45;;
20567;SDS011;10442;49.932;11.592;2023-04-29T04:07:38;4.03;;;3.63;;
20567;SDS011;10442;49.932;11.592;2023-04-29T04:10:29;4.40;;;4.10;;
20567;SDS011;10442;49.932;11.592;2023-04-29T04:12:59;4.60;;;4.30;;
20567;SDS011;10442;49.932;11.592;2023-04-29T04:15:26;4.70;;;4.30;;
20567;SDS011;10442;49.932;11.592;2023-04-29T04:17:53;4.18;;;3.88;;
20567;SDS011;10442;49.932;11.592;2023-04-29T04:20:21;4.82;;;4.53;;
20567;SDS011;10442;49.932;11.592;2023-04-29T04:22:49;4.95;;;4.65;;
20567;SDS011;10442;49.932;11.592;2023-04-29T04:25:23;4.70;;;4.30;;
20567;SDS011;10442;49.932;11.592;2023-04-29T04:27:53;3.95;;;3.65;;
20567;SDS011;10442;49.932;11.592;2023-04-29T04:30:47;4.13;;;3.80;;
20567;SDS011;10442;49.932;11.592;2023-04-29T04:33:15;3.92;;;3.65;;
20567;SDS011;10442;49.932;11.592;2023-04-29T04:35:45;5.13;;;4.75;;
20567;SDS011;10442;49.932;11.592;2023-04-29T04:38:12;4.15;;;3.85;;
20567;SDS011;10442;49.932;11.592;2023-04-29T04:40:41;4.30;;;4.00;;
20567;SDS011;10442;49.932;11.592;2023-04-29T04:43:29;3.83;;;3.60;;
20567;SDS011;10442;49.932;11.592;2023-04-29T04:45:57;4.47;;;4.18;;
20567;SDS011;10442;49.932;11.592;2023-04-29T04:48:24;4.38;;;4.10;;
20567;SDS011;10442;49.932;11.592;2023-04-29T04:50:53;4.97;;;4.68;;
20567;SDS011;10442;49.932;11.592;2023-04-29T04:53:20;6.20;;;5.13;;
20567;SDS011;10442;49.932;11.592;2023-04-29T04:56:02;5.50;;;5.10;;
20567;SDS011;10442;49.932;11.592;2023-04-29T04:58:31;5.20;;;4.80;;
20567;SDS011;10442;49.932;11.592;2023-04-29T05:00:59;5.47;;;5.07;;
20567;SDS011;10442;49.932;11.592;2023-04-29T05:03:26;4.82;;;4.43;;
20567;SDS011;10442;49.932;11.592;2023-04-29T05:05:54;4.85;;;4.45;;
20567;SDS011;10442;49.932;11.592;2023-04-29T05:08:23;5.32;;;4.78;;
20567;SDS011;10442;49.932;11.592;2023-04-29T05:10:53;5.72;;;5.22;;
20567;SDS011;10442;49.932;11.592;2023-04-29T05:13:20;5.28;;;4.88;;
20567;SDS011;10442;49.932;11.592;2023-04-29T05:15:48;4.80;;;4.50;;
20567;SDS011;10442;49.932;11.592;2023-04-29T05:18:20;6.00;;;5.60;;
20567;SDS011;10442;49.932;11.592;2023-04-29T05:20:49;5.13;;;4.82;;
20567;SDS011;10442;49.932;11.592;2023-04-29T05:23:17;5.78;;;5.38;;
20567;SDS011;10442;49.932;11.592;2023-04-29T05:25:45;4.97;;;4.60;;
20567;SDS011;10442;49.932;11.592;2023-04-29T05:28:15;6.25;;;5.75;;
20567;SDS011;10442;49.932;11.592;2023-04-29T05:30:43;7.15;;;6.10;;
20567;SDS011;10442;49.932;11.592;2023-04-29T05:33:11;5.18;;;4.85;;
20567;SDS011;10442;49.932;11.592;2023-04-29T05:35:38;6.45;;;5.85;;
20567;SDS011;10442;49.932;11.592;2023-04-29T05:38:06;6.07;;;5.68;;
20567;SDS011;10442;49.932;11.592;2023-04-29T05:40:36;5.55;;;5.15;;
20567;SDS011;10442;49.932;11.592;2023-04-29T05:43:27;6.55;;;6.13;;
20567;SDS011;10442;49.932;11.592;2023-04-29T05:45:56;6.28;;;5.78;;
20567;SDS011;10442;49.932;11.592;2023-04-29T05:48:23;6.68;;;6.15;;
20567;SDS011;10442;49.932;11.592;2023-04-29T05:50:51;7.97;;;7.03;;
20567;SDS011;10442;49.932;11.592;2023-04-29T05:53:20;7.10;;;6.60;;
20567;SDS011;10442;49.932;11.592;2023-04-29T05:55:48;7.35;;;6.85;;
20567;SDS011;10442;49.932;11.592;2023-04-29T05:58:19;6.45;;;5.95;;
20567;SDS011;10442;49.932;11.592;2023-04-29T06:00:47;7.22;;;6.72;;
20567;SDS011;10442;49.932;11.592;2023-04-29T06:03:20;7.00;;;6.45;;
20567;SDS011;10442;49.932;11.592;2023-04-29T06:05:55;7.18;;;6.68;;
20567;SDS011;10442;49.932;11.592;2023-04-29T06:08:49;7.05;;;6.50;;
20567;SDS011;10442;49.932;11.592;2023-04-29T06:11:21;8.25;;;7.63;;
20567;SDS011;10442;49.932;11.592;2023-04-29T06:13:49;7.07;;;6.55;;
20567;SDS011;10442;49.932;11.592;2023-04-29T06:16:17;6.90;;;6.35;;
20567;SDS011;10442;49.932;11.592;2023-04-29T06:18:44;6.93;;;6.28;;
20567;SDS011;10442;49.932;11.592;2023-04-29T06:21:12;6.82;;;6.30;;
20567;SDS011;10442;49.932;11.592;2023-04-29T06:23:42;8.52;;;7.82;;
20567;SDS011;10442;49.932;11.592;2023-04-29T06:26:15;7.40;;;6.90;;
20567;SDS011;10442;49.932;11.592;2023-04-29T06:28:42;7.18;;;6.47;;
20567;SDS011;10442;49.932;11.592;2023-04-29T06:31:10;7.40;;;6.90;;
20567;SDS011;10442;49.932;11.592;2023-04-29T06:33:38;7.00;;;6.50;;
20567;SDS011;10442;49.932;11.592;2023-04-29T06:36:06;7.03;;;6.43;;
20567;SDS011;10442;49.932;11.592;2023-04-29T06:39:00;7.88;;;7.25;;
20567;SDS011;10442;49.932;11.592;2023-04-29T06:41:47;6.45;;;5.95;;
20567;SDS011;10442;49.932;11.592;2023-04-29T06:44:39;5.93;;;5.43;;
20567;SDS011;10442;49.932;11.592;2023-04-29T06:47:23;6.90;;;6.32;;
20567;SDS011;10442;49.932;11.592;2023-04-29T06:50:04;6.25;;;5.72;;
20567;SDS011;10442;49.932;11.592;2023-04-29T06:52:31;6.15;;;5.70;;
20567;SDS011;10442;49.932;11.592;2023-04-29T06:54:59;7.03;;;6.53;;
20567;SDS011;10442;49.932;11.592;2023-04-29T06:57:27;6.30;;;5.80;;
20567;SDS011;10442;49.932;11.592;2023-04-29T06:59:54;6.10;;;5.65;;
20567;SDS011;10442;49.932;11.592;2023-04-29T07:02:23;5.75;;;5.32;;
20567;SDS011;10442;49.932;11.592;2023-04-29T07:04:51;6.13;;;4.97;;
20567;SDS011;10442;49.932;11.592;2023-04-29T07:07:18;5.57;;;5.18;;
20567;SDS011;10442;49.932;11.592;2023-04-29T07:09:46;5.60;;;5.10;;
20567;SDS011;10442;49.932;11.592;2023-04-29T07:12:14;7.50;;;6.05;;
20567;SDS011;10442;49.932;11.592;2023-04-29T07:14:41;5.63;;;5.22;;
20567;SDS011;10442;49.932;11.592;2023-04-29T07:17:09;5.43;;;5.03;;
20567;SDS011;10442;49.932;11.592;2023-04-29T07:19:40;5.75;;;5.35;;
20567;SDS011;10442;49.932;11.592;2023-04-29T07:22:07;6.22;;;5.82;;
20567;SDS011;10442;49.932;11.592;2023-04-29T07:24:35;4.88;;;4.53;;
20567;SDS011;10442;49.932;11.592;2023-04-29T07:27:02;5.78;;;5.30;;
20567;SDS011;10442;49.932;11.592;2023-04-29T07:29:30;5.70;;;5.20;;
20567;SDS011;10442;49.932;11.592;2023-04-29T07:31:58;5.95;;;5.55;;
20567;SDS011;10442;49.932;11.592;2023-04-29T07:34:26;6.18;;;5.55;;
20567;SDS011;10442;49.932;11.592;2023-04-29T07:36:53;5.13;;;4.72;;
20567;SDS011;10442;49.932;11.592;2023-04-29T07:39:21;5.88;;;5.38;;
20567;SDS011;10442;49.932;11.592;2023-04-29T07:41:54;5.40;;;5.00;;
20567;SDS011;10442;49.932;11.592;2023-04-29T07:44:21;5.90;;;5.40;;
20567;SDS011;10442;49.932;11.592;2023-04-29T07:46:49;5.32;;;4.93;;
20567;SDS011;10442;49.932;11.592;2023-04-29T07:49:17;6.72;;;6.22;;
20567;SDS011;10442;49.932;11.592;2023-04-29T07:51:45;7.35;;;5.80;;
20567;SDS011;10442;49.932;11.592;2023-04-29T07:54:12;5.30;;;4.90;;
20567;SDS011;10442;49.932;11.592;2023-04-29T07:56:41;5.30;;;4.90;;
20567;SDS011;10442;49.932;11.592;2023-04-29T07:59:09;6.15;;;5.65;;
20567;SDS011;10442;49.932;11.592;2023-04-29T08:01:39;5.70;;;5.30;;
20567;SDS011;10442;49.932;11.592;2023-04-29T08:04:07;5.97;;;5.47;;
20567;SDS011;10442;49.932;11.592;2023-04-29T08:06:45;4.80;;;4.43;;
20567;SDS011;10442;49.932;11.592;2023-04-29T08:09:12;5.53;;;5.13;;
20567;SDS011;10442;49.932;11.592;2023-04-29T08:11:41;5.13;;;4.72;;
20567;SDS011;10442;49.932;11.592;2023-04-29T08:14:12;5.45;;;5.05;;
20567;SDS011;10442;49.932;11.592;2023-04-29T08:16:39;5.18;;;4.82;;
20567;SDS011;10442;49.932;11.592;2023-04-29T08:19:07;6.00;;;5.50;;
20567;SDS011;10442;49.932;11.592;2023-04-29T08:21:34;5.50;;;5.10;;
20567;SDS011;10442;49.932;11.592;2023-04-29T08:24:02;5.43;;;5.03;;
20567;SDS011;10442;49.932;11.592;2023-04-29T08:26:29;8.55;;;4.20;;
20567;SDS011;10442;49.932;11.592;2023-04-29T08:28:57;5.43;;;4.93;;
20567;SDS011;10442;49.932;11.592;2023-04-29T08:31:24;3.85;;;3.65;;
20567;SDS011;10442;49.932;11.592;2023-04-29T08:33:52;4.53;;;4.22;;
20567;SDS011;10442;49.932;11.592;2023-04-29T08:36:19;4.78;;;4.47;;
20567;SDS011;10442;49.932;11.592;2023-04-29T08:38:47;5.70;;;3.50;;
20567;SDS011;10442;49.932;11.592;2023-04-29T08:41:18;3.88;;;3.58;;
20567;SDS011;10442;49.932;11.592;2023-04-29T08:43:45;4.20;;;3.90;;
20567;SDS011;10442;49.932;11.592;2023-04-29T08:46:13;3.97;;;3.72;;
20567;SDS011;10442;49.932;11.592;2023-04-29T08:48:42;4.32;;;4.03;;
20567;SDS011;10442;49.932;11.592;2023-04-29T08:51:11;3.78;;;3.38;;
20567;SDS011;10442;49.932;11.592;2023-04-29T08:53:39;3.53;;;3.22;;
20567;SDS011;10442;49.932;11.592;2023-04-29T08:56:16;4.72;;;4.32;;
20567;SDS011;10442;49.932;11.592;2023-04-29T08:58:49;3.50;;;3.20;;
20567;SDS011;10442;49.932;11.592;2023-04-29T09:01:20;3.75;;;3.55;;
20567;SDS011;10442;49.932;11.592;2023-04-29T09:03:53;5.20;;;4.00;;
20567;SDS011;10442;49.932;11.592;2023-04-29T09:06:30;5.13;;;4.72;;
20567;SDS011;10442;49.932;11.592;2023-04-29T09:08:59;3.42;;;3.15;;
20567;SDS011;10442;49.932;11.592;2023-04-29T09:11:28;3.88;;;3.58;;
20567;SDS011;10442;49.932;11.592;2023-04-29T09:13:59;3.88;;;3.60;;
20567;SDS011;10442;49.932;11.592;2023-04-29T09:16:28;2.78;;;2.58;;
20567;SDS011;10442;49.932;11.592;2023-04-29T09:18:56;3.13;;;2.92;;
20567;SDS011;10442;49.932;11.592;2023-04-29T09:21:25;2.92;;;2.72;;
20567;SDS011;10442;49.932;11.592;2023-04-29T09:23:55;3.15;;;2.95;;
20567;SDS011;10442;49.932;11.592;2023-04-29T09:26:24;3.03;;;2.83;;
20567;SDS011;10442;49.932;11.592;2023-04-29T09:29:06;3.50;;;3.28;;
20567;SDS011;10442;49.932;11.592;2023-04-29T09:31:35;2.85;;;2.65;;
20567;SDS011;10442;49.932;11.592;2023-04-29T09:34:04;2.75;;;2.55;;
20567;SDS011;10442;49.932;11.592;2023-04-29T09:39:49;3.28;;;3.08;;
20567;SDS011;10442;49.932;11.592;2023-04-29T09:42:16;2.95;;;2.75;;
20567;SDS011;10442;49.932;11.592;2023-04-29T09:44:44;3.17;;;2.97;;
20567;SDS011;10442;49.932;11.592;2023-04-29T09:47:11;2.75;;;2.55;;
20567;SDS011;10442;49.932;11.592;2023-04-29T09:52:09;2.60;;;2.40;;
20567;SDS011;10442;49.932;11.592;2023-04-29T09:54:42;2.80;;;2.60;;
20567;SDS011;10442;49.932;11.592;2023-04-29T09:57:12;3.15;;;2.83;;
20567;SDS011;10442;49.932;11.592;2023-04-29T09:59:42;3.85;;;3.65;;
20567;SDS011;10442;49.932;11.592;2023-04-29T10:02:16;3.45;;;3.15;;
20567;SDS011;10442;49.932;11.592;2023-04-29T10:04:46;2.75;;;2.55;;
20567;SDS011;10442;49.932;11.592;2023-04-29T10:07:20;3.05;;;2.47;;
20567;SDS011;10442;49.932;11.592;2023-04-29T10:09:48;3.10;;;2.90;;
20567;SDS011;10442;49.932;11.592;2023-04-29T10:12:16;3.55;;;3.28;;
20567;SDS011;10442;49.932;11.592;2023-04-29T10:14:47;3.42;;;3.05;;
20567;SDS011;10442;49.932;11.592;2023-04-29T10:17:17;4.53;;;3.30;;
20567;SDS011;10442;49.932;11.592;2023-04-29T10:20:02;4.88;;;3.72;;
20567;SDS011;10442;49.932;11.592;2023-04-29T10:25:15;3.40;;;2.60;;
20567;SDS011;10442;49.932;11.592;2023-04-29T10:27:44;3.50;;;3.20;;
20567;SDS011;10442;49.932;11.592;2023-04-29T10:30:13;4.35;;;4.00;;
20567;SDS011;10442;49.932;11.592;2023-04-29T10:32:42;3.88;;;3.45;;
20567;SDS011;10442;49.932;11.592;2023-04-29T10:35:18;3.53;;;3.33;;
20567;SDS011;10442;49.932;11.592;2023-04-29T10:37:49;3.95;;;3.65;;
20567;SDS011;10442;49.932;11.592;2023-04-29T10:40:20;4.15;;;3.50;;
20567;SDS011;10442;49.932;11.592;2023-04-29T10:42:51;4.72;;;4.35;;
20567;SDS011;10442;49.932;11.592;2023-04-29T10:50:32;3.45;;;3.22;;
20567;SDS011;10442;49.932;11.592;2023-04-29T10:53:13;4.22;;;3.92;;
20567;SDS011;10442;49.932;11.592;2023-04-29T10:55:41;3.95;;;3.58;;
20567;SDS011;10442;49.932;11.592;2023-04-29T11:01:05;3.97;;;3.67;;
20567;SDS011;10442;49.932;11.592;2023-04-29T11:03:47;3.75;;;3.45;;
20567;SDS011;10442;49.932;11.592;2023-04-29T11:06:15;3.50;;;3.30;;
20567;SDS011;10442;49.932;11.592;2023-04-29T11:08:42;2.80;;;2.60;;
20567;SDS011;10442;49.932;11.592;2023-04-29T11:11:12;3.92;;;3.22;;
20567;SDS011;10442;49.932;11.592;2023-04-29T11:13:41;2.83;;;2.63;;
20567;SDS011;10442;49.932;11.592;2023-04-29T11:16:13;2.08;;;1.98;;
20567;SDS011;10442;49.932;11.592;2023-04-29T11:21:34;2.65;;;2.45;;
20567;SDS011;10442;49.932;11.592;2023-04-29T11:24:05;2.28;;;2.17;;
20567;SDS011;10442;49.932;11.592;2023-04-29T11:26:33;2.65;;;2.45;;
20567;SDS011;10442;49.932;11.592;2023-04-29T11:29:01;2.40;;;2.20;;
20567;SDS011;10442;49.932;11.592;2023-04-29T11:31:31;2.65;;;2.50;;
20567;SDS011;10442;49.932;11.592;2023-04-29T11:33:59;2.42;;;2.33;;
20567;SDS011;10442;49.932;11.592;2023-04-29T11:36:27;2.15;;;2.05;;
20567;SDS011;10442;49.932;11.592;2023-04-29T11:39:01;2.42;;;2.30;;
20567;SDS011;10442;49.932;11.592;2023-04-29T11:41:30;1.80;;;1.70;;
20567;SDS011;10442;49.932;11.592;2023-04-29T11:43:58;1.88;;;1.77;;
20567;SDS011;10442;49.932;11.592;2023-04-29T11:46:29;2.28;;;2.17;;
20567;SDS011;10442;49.932;11.592;2023-04-29T11:48:57;1.75;;;1.65;;
20567;SDS011;10442;49.932;11.592;2023-04-29T11:51:26;1.80;;;1.70;;
20567;SDS011;10442;49.932;11.592;2023-04-29T11:53:55;2.67;;;2.13;;
20567;SDS011;10442;49.932;11.592;2023-04-29T11:56:23;1.80;;;1.70;;
20567;SDS011;10442;49.932;11.592;2023-04-29T11:58:54;2.47;;;2.38;;
20567;SDS011;10442;49.932;11.592;2023-04-29T12:01:24;2.78;;;2.53;;
20567;SDS011;10442;49.932;11.592;2023-04-29T12:03:56;1.92;;;1.83;;
20567;SDS011;10442;49.932;11.592;2023-04-29T12:06:26;1.83;;;1.73;;
20567;SDS011;10442;49.932;11.592;2023-04-29T12:08:57;1.38;;;1.38;;
20567;SDS011;10442;49.932;11.592;2023-04-29T12:11:26;1.58;;;1.48;;
20567;SDS011;10442;49.932;11.592;2023-04-29T12:13:55;1.48;;;1.38;;
20567;SDS011;10442;49.932;11.592;2023-04-29T12:16:23;1.73;;;1.63;;
20567;SDS011;10442;49.932;11.592;2023-04-29T12:18:51;1.23;;;1.20;;
20567;SDS011;10442;49.932;11.592;2023-04-29T12:21:22;1.00;;;1.00;;
20567;SDS011;10442;49.932;11.592;2023-04-29T12:23:50;1.00;;;1.00;;
20567;SDS011;10442;49.932;11.592;2023-04-29T12:26:18;1.40;;;1.30;;
20567;SDS011;10442;49.932;11.592;2023-04-29T12:28:52;1.40;;;1.30;;
20567;SDS011;10442;49.932;11.592;2023-04-29T12:31:21;1.10;;;1.10;;
20567;SDS011;10442;49.932;11.592;2023-04-29T12:33:52;1.27;;;1.10;;
20567;SDS011;10442;49.932;11.592;2023-04-29T12:36:20;1.23;;;1.13;;
20567;SDS011;10442;49.932;11.592;2023-04-29T12:38:48;1.30;;;1.20;;
20567;SDS011;10442;49.932;11.592;2023-04-29T12:41:16;1.00;;;1.00;;
20567;SDS011;10442;49.932;11.592;2023-04-29T12:43:44;2.20;;;1.20;;
20567;SDS011;10442;49.932;11.592;2023-04-29T12:46:12;0.98;;;0.98;;
20567;SDS011;10442;49.932;11.592;2023-04-29T12:48:41;1.02;;;1.02;;
20567;SDS011;10442;49.932;11.592;2023-04-29T12:51:12;1.23;;;1.13;;
20567;SDS011;10442;49.932;11.592;2023-04-29T12:53:39;1.27;;;1.13;;
20567;SDS011;10442;49.932;11.592;2023-04-29T12:56:07;1.20;;;1.20;;
20567;SDS011;10442;49.932;11.592;2023-04-29T12:58:34;1.25;;;1.15;;
20567;SDS011;10442;49.932;11.592;2023-04-29T13:01:01;0.85;;;0.85;;
20567;SDS011;10442;49.932;11.592;2023-04-29T13:03:29;1.00;;;1.00;;
20567;SDS011;10442;49.932;11.592;2023-04-29T13:05:57;1.08;;;1.08;;
20567;SDS011;10442;49.932;11.592;2023-04-29T13:08:24;1.63;;;1.30;;
20567;SDS011;10442;49.932;11.592;2023-04-29T13:10:53;1.27;;;1.17;;
20567;SDS011;10442;49.932;11.592;2023-04-29T13:13:21;0.82;;;0.82;;
20567;SDS011;10442;49.932;11.592;2023-04-29T13:15:48;1.15;;;1.05;;
20567;SDS011;10442;49.932;11.592;2023-04-29T13:18:15;1.00;;;1.00;;
20567;SDS011;10442;49.932;11.592;2023-04-29T13:20:43;1.27;;;1.17;;
20567;SDS011;10442;49.932;11.592;2023-04-29T13:23:10;1.40;;;1.30;;
20567;SDS011;10442;49.932;11.592;2023-04-29T13:25:38;0.90;;;0.90;;
20567;SDS011;10442;49.932;11.592;2023-04-29T13:28:05;1.35;;;1.25;;
20567;SDS011;10442;49.932;11.592;2023-04-29T13:30:33;2.08;;;1.27;;
20567;SDS011;10442;49.932;11.592;2023-04-29T13:33:01;0.80;;;0.80;;
20567;SDS011;10442;49.932;11.592;2023-04-29T13:35:38;1.10;;;1.10;;
20567;SDS011;10442;49.932;11.592;2023-04-29T13:38:07;1.27;;;1.27;;
20567;SDS011;10442;49.932;11.592;2023-04-29T13:40:35;1.02;;;1.02;;
20567;SDS011;10442;49.932;11.592;2023-04-29T13:43:10;1.85;;;1.23;;
20567;SDS011;10442;49.932;11.592;2023-04-29T13:45:44;0.82;;;0.82;;
20567;SDS011;10442;49.932;11.592;2023-04-29T13:48:14;1.00;;;1.00;;
20567;SDS011;10442;49.932;11.592;2023-04-29T13:50:44;0.65;;;0.65;;
20567;SDS011;10442;49.932;11.592;2023-04-29T13:53:15;2.47;;;1.20;;
20567;SDS011;10442;49.932;11.592;2023-04-29T13:55:45;0.82;;;0.82;;
20567;SDS011;10442;49.932;11.592;2023-04-29T13:58:16;0.73;;;0.73;;
20567;SDS011;10442;49.932;11.592;2023-04-29T14:00:46;1.88;;;0.60;;
20567;SDS011;10442;49.932;11.592;2023-04-29T14:03:34;0.70;;;0.70;;
20567;SDS011;10442;49.932;11.592;2023-04-29T14:06:02;1.20;;;1.10;;
20567;SDS011;10442;49.932;11.592;2023-04-29T14:08:30;0.85;;;0.85;;
20567;SDS011;10442;49.932;11.592;2023-04-29T14:10:57;1.88;;;0.73;;
20567;SDS011;10442;49.932;11.592;2023-04-29T14:13:25;0.65;;;0.65;;
20567;SDS011;10442;49.932;11.592;2023-04-29T14:15:52;0.60;;;0.60;;
20567;SDS011;10442;49.932;11.592;2023-04-29T14:18:20;0.88;;;0.88;;
20567;SDS011;10442;49.932;11.592;2023-04-29T14:20:47;0.70;;;0.70;;
20567;SDS011;10442;49.932;11.592;2023-04-29T14:23:15;0.75;;;0.75;;
20567;SDS011;10442;49.932;11.592;2023-04-29T14:25:42;0.98;;;0.98;;
20567;SDS011;10442;49.932;11.592;2023-04-29T14:28:10;1.38;;;1.27;;
20567;SDS011;10442;49.932;11.592;2023-04-29T14:30:38;1.08;;;0.88;;
20567;SDS011;10442;49.932;11.592;2023-04-29T14:33:06;0.80;;;0.80;;
20567;SDS011;10442;49.932;11.592;2023-04-29T14:35:34;1.02;;;1.00;;
20567;SDS011;10442;49.932;11.592;2023-04-29T14:38:01;0.77;;;0.77;;
20567;SDS011;10442;49.932;11.592;2023-04-29T14:40:28;1.30;;;1.20;;
20567;SDS011;10442;49.932;11.592;2023-04-29T14:42:56;1.35;;;1.33;;
20567;SDS011;10442;49.932;11.592;2023-04-29T14:45:23;1.25;;;1.10;;
20567;SDS011;10442;49.932;11.592;2023-04-29T14:47:50;1.30;;;1.20;;
20567;SDS011;10442;49.932;11.592;2023-04-29T14:50:18;2.67;;;1.48;;
20567;SDS011;10442;49.932;11.592;2023-04-29T14:52:45;1.33;;;1.25;;
20567;SDS011;10442;49.932;11.592;2023-04-29T14:55:14;1.30;;;1.30;;
20567;SDS011;10442;49.932;11.592;2023-04-29T14:57:41;1.13;;;1.10;;
20567;SDS011;10442;49.932;11.592;2023-04-29T15:00:09;1.55;;;1.45;;
20567;SDS011;10442;49.932;11.592;2023-04-29T15:02:37;1.27;;;1.27;;
20567;SDS011;10442;49.932;11.592;2023-04-29T15:05:05;1.13;;;1.13;;
20567;SDS011;10442;49.932;11.592;2023-04-29T15:07:33;1.60;;;1.50;;
20567;SDS011;10442;49.932;11.592;2023-04-29T15:10:01;1.60;;;1.38;;
20567;SDS011;10442;49.932;11.592;2023-04-29T15:12:28;1.50;;;1.20;;
20567;SDS011;10442;49.932;11.592;2023-04-29T15:14:56;1.58;;;1.20;;